Time;durP1;ratioP1;P1;durP2;ratioP2;P2;SDS_P1;SDS_P2;PMS_P1;PMS_P2;Temp;Humidity;BMP_temperature;BMP_pressure;BME280_temperature;BME280_humidity;BME280_pressure;Samples;Min_cycle;Max_cycle;Signal;HPM_P1;HPM_P2
2022/09/13 00:00:21;;;;;;;1999.90;999.90;;;23.10;99.90;;;;;;5054632;28;20052;-77
2022/09/13 00:02:46;;;;;;;1999.90;999.90;;;23.10;99.90;;;;;;5053922;28;20124;-81
2022/09/13 00:05:12;;;;;;;1999.90;999.90;;;23.00;99.90;;;;;;5055324;28;20083;-73
2022/09/13 00:07:37;;;;;;;1999.90;999.90;;;23.00;99.90;;;;;;5054933;28;20025;-81
2022/09/13 00:10:03;;;;;;;1999.90;999.90;;;23.00;99.90;;;;;;5054751;28;20083;-74
2022/09/13 00:12:29;;;;;;;1999.90;999.90;;;23.00;99.90;;;;;;5037602;28;20034;-74
2022/09/13 00:14:55;;;;;;;1999.90;999.90;;;23.00;99.90;;;;;;5034866;28;20111;-81
2022/09/13 00:17:21;;;;;;;1999.90;999.90;;;23.00;99.90;;;;;;5034842;28;20029;-80
2022/09/13 00:19:47;;;;;;;1999.90;999.90;;;23.00;99.90;;;;;;5034617;28;20021;-80
2022/09/13 00:22:12;;;;;;;1999.90;999.90;;;23.00;99.90;;;;;;5034499;28;20442;-74
2022/09/13 00:24:38;;;;;;;1999.90;999.90;;;23.00;99.90;;;;;;5034179;28;20029;-74
2022/09/13 00:27:04;;;;;;;1999.90;999.90;;;22.90;99.90;;;;;;5034075;28;20034;-74
2022/09/13 00:29:29;;;;;;;1999.90;999.90;;;22.90;99.90;;;;;;5034439;28;20045;-74
2022/09/13 00:31:55;;;;;;;1999.90;999.90;;;22.90;99.90;;;;;;5034146;28;20029;-81
2022/09/13 00:34:20;;;;;;;1999.90;999.90;;;22.80;99.90;;;;;;5034601;28;20080;-74
2022/09/13 00:36:46;;;;;;;1999.90;999.90;;;22.80;99.90;;;;;;5034302;28;20022;-81
2022/09/13 00:39:12;;;;;;;1999.90;999.90;;;22.80;99.90;;;;;;5046115;28;20029;-81
2022/09/13 00:41:38;;;;;;;1999.90;999.90;;;22.70;99.90;;;;;;5054515;28;20116;-74
2022/09/13 00:44:05;;;;;;;1999.90;999.90;;;22.70;99.90;;;;;;5054141;28;20049;-74
2022/09/13 00:46:36;;;;;;;1999.90;999.90;;;22.70;99.90;;;;;;5053847;28;20063;-74
2022/09/13 00:49:31;;;;;;;1999.90;999.90;;;22.60;99.90;;;;;;5054869;28;20387;-75
2022/09/13 00:52:08;;;;;;;1999.90;999.90;;;22.60;99.90;;;;;;5053601;28;20090;-74
2022/09/13 00:54:39;;;;;;;1999.90;999.90;;;22.50;99.90;;;;;;5054598;28;20025;-74
2022/09/13 00:57:06;;;;;;;1999.90;999.90;;;22.50;99.90;;;;;;5053901;28;20071;-81
2022/09/13 00:59:44;;;;;;;1999.90;999.90;;;22.50;99.90;;;;;;5053735;28;20054;-81
2022/09/13 01:02:11;;;;;;;1999.90;999.90;;;22.50;99.90;;;;;;5053434;28;20029;-74
2022/09/13 01:04:38;;;;;;;1999.90;999.90;;;22.40;99.90;;;;;;5054064;28;20467;-81
2022/09/13 01:07:08;;;;;;;1999.90;999.90;;;22.50;99.90;;;;;;5053665;28;20029;-80
2022/09/13 01:09:37;;;;;;;1999.90;999.90;;;22.40;99.90;;;;;;5053914;28;20163;-81
2022/09/13 01:12:11;;;;;;;1999.90;999.90;;;22.40;99.90;;;;;;5040026;28;20095;-80
2022/09/13 01:14:37;;;;;;;1999.90;999.90;;;22.40;99.90;;;;;;5033108;28;20100;-74
2022/09/13 01:17:03;;;;;;;1999.90;999.90;;;22.30;99.90;;;;;;5033653;28;20028;-74
2022/09/13 01:19:29;;;;;;;1999.90;999.90;;;22.30;99.90;;;;;;5033731;28;20032;-74
2022/09/13 01:22:16;;;;;;;1999.90;999.90;;;22.30;99.90;;;;;;5033615;28;20038;-81
2022/09/13 01:24:42;;;;;;;1999.90;999.90;;;22.30;99.90;;;;;;5033143;28;20044;-81
2022/09/13 01:27:43;;;;;;;1999.90;999.90;;;22.20;99.90;;;;;;5033376;28;20401;-74
2022/09/13 01:30:19;;;;;;;1999.90;999.90;;;22.20;99.90;;;;;;5033431;28;20053;-80
2022/09/13 01:33:00;;;;;;;1999.90;999.90;;;22.20;99.90;;;;;;5033176;28;20036;-73
2022/09/13 01:35:59;;;;;;;1999.90;999.90;;;22.10;99.90;;;;;;5033612;28;20018;-81
2022/09/13 01:38:58;;;;;;;1999.90;999.90;;;22.10;99.90;;;;;;5038036;28;20025;-80
2022/09/13 01:41:31;;;;;;;1999.90;999.90;;;22.10;99.90;;;;;;5053374;28;20017;-74
2022/09/13 01:44:18;;;;;;;1999.90;999.90;;;22.10;99.90;;;;;;5053429;28;20458;-81
2022/09/13 01:46:46;;;;;;;1999.90;999.90;;;22.00;99.90;;;;;;5051617;28;20031;-81
2022/09/13 01:49:28;;;;;;;1999.90;999.90;;;22.00;99.90;;;;;;5053596;28;20373;-74
2022/09/13 01:52:24;;;;;;;1999.90;999.90;;;22.10;99.90;;;;;;5053373;28;20146;-74
2022/09/13 01:55:04;;;;;;;1999.90;999.90;;;22.10;99.90;;;;;;5034782;28;20056;-73
2022/09/13 01:57:56;;;;;;;1999.90;999.90;;;22.10;99.90;;;;;;5053215;28;20099;-74
2022/09/13 02:00:22;;;;;;;1999.90;999.90;;;22.00;99.90;;;;;;5052582;28;20484;-79
2022/09/13 02:02:53;;;;;;;1999.90;999.90;;;22.00;99.90;;;;;;5053017;28;20048;-74
2022/09/13 02:05:28;;;;;;;1999.90;999.90;;;22.00;99.90;;;;;;5053073;28;20035;-74
2022/09/13 02:08:12;;;;;;;1999.90;999.90;;;22.00;99.90;;;;;;5052864;28;20120;-73
2022/09/13 02:10:45;;;;;;;1999.90;999.90;;;21.90;99.90;;;;;;5051622;28;20025;-74
2022/09/13 02:13:13;;;;;;;;;;;21.90;99.90;;;;;;5032803;28;20369;-74
2022/09/13 02:15:55;;;;;;;1999.90;999.90;;;21.90;99.90;;;;;;5032968;28;20422;-81
2022/09/13 02:18:27;;;;;;;1999.90;999.90;;;21.90;99.90;;;;;;5032934;28;20025;-73
2022/09/13 02:20:59;;;;;;;1999.90;999.90;;;21.90;99.90;;;;;;5032919;28;20520;-73
2022/09/13 02:23:59;;;;;;;1999.90;999.90;;;21.80;99.90;;;;;;5035716;28;20059;-74
2022/09/13 02:26:28;;;;;;;1999.90;999.90;;;21.80;99.90;;;;;;5052561;28;20029;-74
2022/09/13 02:28:56;;;;;;;1999.90;999.90;;;21.80;99.90;;;;;;5052666;28;20099;-74
2022/09/13 02:31:38;;;;;;;1999.90;999.90;;;21.70;99.90;;;;;;5052554;28;20515;-73
2022/09/13 02:34:17;;;;;;;1999.90;999.90;;;21.70;99.90;;;;;;5052648;28;20051;-74
2022/09/13 02:36:47;;;;;;;1999.90;999.90;;;21.70;99.90;;;;;;5052532;28;20017;-80
2022/09/13 02:39:16;;;;;;;1999.90;999.90;;;21.70;99.90;;;;;;5052548;28;20520;-74
2022/09/13 02:41:45;;;;;;;1999.90;999.90;;;21.70;99.90;;;;;;5051369;28;20376;-76
2022/09/13 02:44:20;;;;;;;1999.90;999.90;;;21.60;99.90;;;;;;5052381;28;20025;-74
2022/09/13 02:47:15;;;;;;;1999.90;999.90;;;21.60;99.90;;;;;;5052429;28;20109;-73
2022/09/13 02:49:59;;;;;;;1999.90;999.90;;;21.70;99.90;;;;;;5055598;28;20052;-73
2022/09/13 02:52:53;;;;;;;1999.90;999.90;;;21.70;99.90;;;;;;5056701;28;20419;-81
2022/09/13 02:55:29;;;;;;;1999.90;999.90;;;21.60;99.90;;;;;;5056559;28;20053;-80
2022/09/13 02:58:32;;;;;;;1999.90;999.90;;;21.60;99.90;;;;;;5056315;28;20106;-73
2022/09/13 03:00:57;;;;;;;1999.90;999.90;;;21.60;99.90;;;;;;5036362;28;20076;-73
2022/09/13 03:03:23;;;;;;;1999.90;999.90;;;21.60;99.90;;;;;;5036089;28;20480;-81
2022/09/13 03:05:49;;;;;;;1999.90;999.90;;;21.60;99.90;;;;;;5037065;28;20497;-74
2022/09/13 03:08:16;;;;;;;1999.90;999.90;;;21.60;99.90;;;;;;5055927;28;20029;-74
2022/09/13 03:10:58;;;;;;;1999.90;999.90;;;21.60;99.90;;;;;;5054797;28;20082;-74
2022/09/13 03:13:39;;;;;;;1999.90;999.90;;;21.50;99.90;;;;;;5035704;28;20033;-74
2022/09/13 03:16:26;;;;;;;1999.90;999.90;;;21.50;99.90;;;;;;5035523;28;20268;-80
2022/09/13 03:19:13;;;;;;;1999.90;999.90;;;21.50;99.90;;;;;;5035974;28;20500;-74
2022/09/13 03:22:00;;;;;;;1999.90;999.90;;;21.50;99.90;;;;;;5014694;28;20033;-74
2022/09/13 03:24:41;;;;;;;1999.90;999.90;;;21.40;99.90;;;;;;5034621;28;20029;-74
2022/09/13 03:27:41;;;;;;;1999.90;999.90;;;21.40;99.90;;;;;;5035925;28;20112;-74
2022/09/13 03:30:11;;;;;;;1999.90;999.90;;;21.40;99.90;;;;;;5035720;28;20604;-74
2022/09/13 03:33:02;;;;;;;1999.90;999.90;;;21.40;99.90;;;;;;5035596;28;20491;-82
2022/09/13 03:35:43;;;;;;;1999.90;999.90;;;21.40;99.90;;;;;;5035645;28;20423;-82
2022/09/13 03:38:16;;;;;;;1999.90;999.90;;;21.40;99.90;;;;;;5038132;28;20105;-75
2022/09/13 03:40:58;;;;;;;1999.90;999.90;;;21.40;99.90;;;;;;5055832;28;20075;-74
2022/09/13 03:43:36;;;;;;;1999.90;999.90;;;21.40;99.90;;;;;;5055563;28;20037;-82
2022/09/13 03:46:07;;;;;;;1999.90;999.90;;;21.40;99.90;;;;;;5055081;28;20435;-74
2022/09/13 03:48:39;;;;;;;1999.90;999.90;;;21.40;99.90;;;;;;5053765;28;20033;-80
2022/09/13 03:51:05;;;;;;;1999.90;999.90;;;21.40;99.90;;;;;;5035392;28;20038;-74
2022/09/13 03:53:35;;;;;;;1999.90;999.90;;;21.40;99.90;;;;;;5035246;28;20017;-74
2022/09/13 03:56:10;;;;;;;1999.90;999.90;;;21.40;99.90;;;;;;5035436;28;20022;-80
2022/09/13 03:58:36;;;;;;;1999.90;999.90;;;21.40;99.90;;;;;;5036894;28;20028;-74
2022/09/13 04:01:01;;;;;;;1999.90;999.90;;;21.40;99.90;;;;;;5055115;28;20040;-73
2022/09/13 04:03:27;;;;;;;1999.90;999.90;;;21.50;99.90;;;;;;5055387;28;20431;-74
2022/09/13 04:05:53;;;;;;;1999.90;999.90;;;21.50;99.90;;;;;;5054841;28;20388;-81
2022/09/13 04:08:18;;;;;;;1999.90;999.90;;;21.50;99.90;;;;;;5054922;28;20192;-74
2022/09/13 04:10:44;;;;;;;1999.90;999.90;;;21.50;99.90;;;;;;5055078;28;20488;-73
2022/09/13 04:13:09;;;;;;;1999.90;999.90;;;21.50;99.90;;;;;;5054913;28;20017;-74
2022/09/13 04:15:35;;;;;;;1999.90;999.90;;;21.60;99.90;;;;;;5054028;28;20025;-74
2022/09/13 04:18:04;;;;;;;1999.90;999.90;;;21.60;99.90;;;;;;5054652;28;20025;-74
2022/09/13 04:20:30;;;;;;;1999.90;999.90;;;21.50;99.90;;;;;;5054106;28;20025;-74
2022/09/13 04:22:56;;;;;;;1999.90;999.90;;;21.60;99.90;;;;;;5054077;28;20503;-81
2022/09/13 04:25:22;;;;;;;1999.90;999.90;;;21.60;99.90;;;;;;5054764;28;20114;-81
2022/09/13 04:27:55;;;;;;;1999.90;999.90;;;21.60;99.90;;;;;;5054843;28;20056;-82
2022/09/13 04:30:21;;;;;;;1999.90;999.90;;;21.50;99.90;;;;;;5054772;28;20053;-73
2022/09/13 04:32:46;;;;;;;1999.90;999.90;;;21.50;99.90;;;;;;5053041;28;20025;-82
2022/09/13 04:35:12;;;;;;;1999.90;999.90;;;21.50;99.90;;;;;;5054431;28;20438;-82
2022/09/13 04:37:38;;;;;;;1999.90;999.90;;;21.60;99.90;;;;;;5054475;28;20480;-74
2022/09/13 04:40:07;;;;;;;1999.90;999.90;;;21.60;99.90;;;;;;5046868;28;20025;-74
2022/09/13 04:42:34;;;;;;;1999.90;999.90;;;21.60;99.90;;;;;;5052996;28;20059;-74
2022/09/13 04:44:59;;;;;;;1999.90;999.90;;;21.70;99.90;;;;;;5047046;28;20025;-74
2022/09/13 04:47:25;;;;;;;1999.90;999.90;;;21.70;99.90;;;;;;5053920;28;20032;-81
2022/09/13 04:49:50;;;;;;;1999.90;999.90;;;21.70;99.90;;;;;;5046226;28;20499;-74
2022/09/13 04:52:16;;;;;;;1999.90;999.90;;;21.80;99.90;;;;;;5054211;28;20048;-74
2022/09/13 04:54:42;;;;;;;1999.90;999.90;;;21.80;99.90;;;;;;5054332;28;20103;-74
2022/09/13 04:57:07;;;;;;;1999.90;999.90;;;21.80;99.90;;;;;;5053773;28;20027;-74
2022/09/13 04:59:33;;;;;;;1999.90;999.90;;;21.80;99.90;;;;;;5053660;28;20020;-74
2022/09/13 05:01:59;;;;;;;1999.90;999.90;;;21.80;99.90;;;;;;5054186;28;20029;-73
2022/09/13 05:04:24;;;;;;;1999.90;999.90;;;21.80;99.90;;;;;;5053988;28;20068;-74
2022/09/13 05:06:50;;;;;;;1999.90;999.90;;;21.80;99.90;;;;;;5053895;28;20060;-74
2022/09/13 05:09:16;;;;;;;1999.90;999.90;;;21.80;99.90;;;;;;5054147;28;20559;-74
2022/09/13 05:11:42;;;;;;;1999.90;999.90;;;21.80;99.90;;;;;;5052907;28;20035;-74
2022/09/13 05:14:11;;;;;;;1999.90;999.90;;;21.90;99.90;;;;;;5053766;28;20021;-74
2022/09/13 05:16:37;;;;;;;1999.90;999.90;;;21.80;99.90;;;;;;5052830;28;20024;-75
2022/09/13 05:19:03;;;;;;;1999.90;999.90;;;21.80;99.90;;;;;;5053474;28;20033;-81
2022/09/13 05:21:29;;;;;;;1999.90;999.90;;;21.80;99.90;;;;;;5053781;28;20021;-74
2022/09/13 05:23:56;;;;;;;1999.90;999.90;;;21.80;99.90;;;;;;5053420;28;20031;-74
2022/09/13 05:26:25;;;;;;;1999.90;999.90;;;21.90;99.90;;;;;;5046275;28;20036;-74
2022/09/13 05:28:51;;;;;;;1999.90;999.90;;;21.90;99.90;;;;;;5033493;28;20049;-82
2022/09/13 05:31:25;;;;;;;1999.90;999.90;;;22.00;99.90;;;;;;5039543;28;20025;-82
2022/09/13 05:34:14;;;;;;;1999.90;999.90;;;22.00;99.90;;;;;;5049546;28;20102;-81
2022/09/13 05:36:40;;;;;;;1999.90;999.90;;;22.00;99.90;;;;;;5048369;28;20014;-74
2022/09/13 05:39:10;;;;;;;1999.90;999.90;;;22.00;99.90;;;;;;5052777;28;20025;-81
2022/09/13 05:41:36;;;;;;;1999.90;999.90;;;22.00;99.90;;;;;;5052114;28;20048;-74
2022/09/13 05:44:02;;;;;;;1999.90;999.90;;;22.10;99.90;;;;;;5051917;28;20127;-80
2022/09/13 05:46:28;;;;;;;1999.90;999.90;;;22.10;99.90;;;;;;5052027;28;20083;-75
2022/09/13 05:48:57;;;;;;;1999.90;999.90;;;22.10;99.90;;;;;;5050907;28;20029;-80
2022/09/13 05:51:22;;;;;;;1999.90;999.90;;;22.10;99.90;;;;;;5033399;28;20392;-81
2022/09/13 05:53:50;;;;;;;1999.90;999.90;;;22.20;99.90;;;;;;5049670;28;20136;-82
2022/09/13 05:56:24;;;;;;;1999.90;999.90;;;22.20;99.90;;;;;;5052389;28;20155;-81
2022/09/13 05:58:51;;;;;;;1999.90;999.90;;;22.20;99.90;;;;;;5052500;28;20021;-79
2022/09/13 06:01:18;;;;;;;1999.90;999.90;;;22.20;99.90;;;;;;5049571;28;20013;-74
2022/09/13 06:03:48;;;;;;;1999.90;999.90;;;22.20;99.90;;;;;;5050477;28;20082;-79
2022/09/13 06:06:14;;;;;;;1999.90;999.90;;;22.30;99.90;;;;;;5049639;28;20889;-81
2022/09/13 06:08:40;;;;;;;1999.90;999.90;;;22.30;99.90;;;;;;5052389;28;20506;-82
2022/09/13 06:11:08;;;;;;;1999.90;999.90;;;22.30;99.90;;;;;;5052206;28;20021;-84
2022/09/13 06:13:34;;;;;;;1999.90;999.90;;;22.30;99.90;;;;;;5050043;28;20452;-75
2022/09/13 06:16:02;;;;;;;1999.90;999.90;;;22.30;99.90;;;;;;5050413;28;20599;-75
2022/09/13 06:18:28;;;;;;;1999.90;999.90;;;22.30;99.90;;;;;;5052432;28;20507;-75
2022/09/13 06:21:02;;;;;;;1999.90;999.90;;;22.30;99.90;;;;;;5052258;28;20014;-76
2022/09/13 06:23:29;;;;;;;1999.90;999.90;;;22.40;99.90;;;;;;5052519;28;20108;-75
2022/09/13 06:26:03;;;;;;;1999.90;999.90;;;22.40;99.90;;;;;;5051255;28;20025;-75
2022/09/13 06:28:29;;;;;;;1999.90;999.90;;;22.50;99.90;;;;;;5053401;28;20127;-75
2022/09/13 06:31:05;;;;;;;1999.90;999.90;;;22.50;99.90;;;;;;5043840;28;20057;-76
2022/09/13 06:33:35;;;;;;;1999.90;999.90;;;22.50;99.90;;;;;;5047732;28;20116;-76
2022/09/13 06:36:19;;;;;;;1999.90;999.90;;;22.50;99.90;;;;;;5058846;28;20025;-76
2022/09/13 06:38:47;;;;;;;1999.90;999.90;;;22.50;99.90;;;;;;5043288;28;20017;-76
2022/09/13 06:41:21;;;;;;;1999.90;999.90;;;22.50;99.90;;;;;;5054056;28;20391;-76
2022/09/13 06:43:51;;;;;;;1999.90;999.90;;;22.50;99.90;;;;;;5053968;28;20067;-82
2022/09/13 06:46:19;;;;;;;1999.90;999.90;;;22.50;99.90;;;;;;5049055;28;20039;-81
2022/09/13 06:48:45;;;;;;;1999.90;999.90;;;22.60;99.90;;;;;;5055074;28;20112;-80
2022/09/13 06:51:13;;;;;;;1999.90;999.90;;;22.60;99.90;;;;;;5053149;28;20032;-77
2022/09/13 06:53:40;;;;;;;1999.90;999.90;;;22.60;99.90;;;;;;5055262;28;20032;-76
2022/09/13 06:56:16;;;;;;;1999.90;999.90;;;22.60;99.90;;;;;;5055614;28;20053;-84
2022/09/13 06:58:43;;;;;;;1999.90;999.90;;;22.70;99.90;;;;;;5055278;28;20075;-76
2022/09/13 07:01:11;;;;;;;1999.90;999.90;;;22.70;99.90;;;;;;5050274;28;20024;-76
2022/09/13 07:03:52;;;;;;;1999.90;999.90;;;22.70;99.90;;;;;;5054487;28;20116;-83
2022/09/13 07:06:26;;;;;;;1999.90;999.90;;;22.80;99.90;;;;;;5054550;28;20500;-76
2022/09/13 07:08:53;;;;;;;1999.90;999.90;;;22.80;99.90;;;;;;5052621;28;20208;-76
2022/09/13 07:11:22;;;;;;;1999.90;999.90;;;22.90;99.90;;;;;;5042566;28;20040;-84
2022/09/13 07:13:53;;;;;;;1999.90;999.90;;;23.00;99.90;;;;;;5041162;28;20021;-85
2022/09/13 07:16:20;;;;;;;1999.90;999.90;;;23.10;99.90;;;;;;5051126;28;20048;-84
2022/09/13 07:18:58;;;;;;;1999.90;999.90;;;23.20;99.90;;;;;;5046828;28;20539;-76
2022/09/13 07:21:25;;;;;;;1999.90;999.90;;;23.30;99.90;;;;;;5055382;28;20100;-76
2022/09/13 07:23:52;;;;;;;1999.90;999.90;;;23.30;99.90;;;;;;5055030;28;20029;-75
2022/09/13 07:26:18;;;;;;;1999.90;999.90;;;23.40;99.90;;;;;;5054983;28;20477;-75
2022/09/13 07:28:46;;;;;;;1999.90;999.90;;;23.40;99.90;;;;;;5054539;28;20045;-75
2022/09/13 07:31:17;;;;;;;1999.90;999.90;;;23.60;99.90;;;;;;5048030;28;20084;-75
2022/09/13 07:33:43;;;;;;;1999.90;999.90;;;23.70;99.90;;;;;;5045797;28;20368;-75
2022/09/13 07:36:10;;;;;;;1999.90;999.90;;;23.80;99.90;;;;;;5037998;28;20037;-83
2022/09/13 07:38:39;;;;;;;1999.90;999.90;;;23.90;99.90;;;;;;5041198;28;20021;-82
2022/09/13 07:41:07;;;;;;;1999.90;999.90;;;24.10;99.90;;;;;;5055090;28;20373;-75
2022/09/13 07:43:35;;;;;;;1999.90;999.90;;;24.40;99.90;;;;;;5052646;28;20082;-75
2022/09/13 07:46:02;;;;;;;1999.90;999.90;;;24.50;99.90;;;;;;5054498;28;20109;-75
2022/09/13 07:48:29;;;;;;;1999.90;999.90;;;24.50;99.90;;;;;;5054478;28;20060;-82
2022/09/13 07:51:07;;;;;;;1999.90;999.90;;;24.80;99.90;;;;;;5054372;28;20029;-75
2022/09/13 07:53:33;;;;;;;1999.90;999.90;;;25.70;99.90;;;;;;5054183;28;20499;-82
2022/09/13 07:56:02;;;;;;;1999.90;999.90;;;25.80;99.90;;;;;;5054490;28;20017;-75
2022/09/13 07:58:28;;;;;;;1999.90;999.90;;;25.70;99.90;;;;;;5053991;28;20480;-76
2022/09/13 08:00:54;;;;;;;1999.90;999.90;;;25.40;99.90;;;;;;5053052;28;20496;-76
2022/09/13 08:03:19;;;;;;;1999.90;999.90;;;25.60;99.90;;;;;;5053896;28;20056;-87
2022/09/13 08:05:45;;;;;;;1999.90;999.90;;;25.60;99.90;;;;;;5053901;28;20055;-80
2022/09/13 08:08:11;;;;;;;1999.90;999.90;;;25.60;99.90;;;;;;5053834;28;20036;-85
2022/09/13 08:10:36;;;;;;;1999.90;999.90;;;25.90;99.90;;;;;;5054029;28;20454;-77
2022/09/13 08:13:02;;;;;;;1999.90;999.90;;;26.50;99.90;;;;;;5054173;28;20682;-74
2022/09/13 08:15:28;;;;;;;1999.90;999.90;;;26.80;99.90;;;;;;5052283;28;20029;-84
2022/09/13 08:17:53;;;;;;;1999.90;999.90;;;26.70;99.90;;;;;;5052364;28;20067;-84
2022/09/13 08:20:22;;;;;;;1999.90;999.90;;;26.40;99.90;;;;;;5055201;28;20105;-84
2022/09/13 08:22:47;;;;;;;1999.90;999.90;;;26.00;99.90;;;;;;5055035;28;20471;-77
2022/09/13 08:25:13;;;;;;;1999.90;999.90;;;25.70;99.90;;;;;;5054347;28;20028;-77
2022/09/13 08:27:39;;;;;;;1999.90;999.90;;;25.60;99.90;;;;;;5053670;28;20496;-85
2022/09/13 08:30:05;;;;;;;1999.90;999.90;;;25.60;99.90;;;;;;5053445;28;20625;-77
2022/09/13 08:32:30;;;;;;;1999.90;999.90;;;25.60;99.90;;;;;;5034518;28;20037;-84
2022/09/13 08:34:56;;;;;;;1999.90;999.90;;;25.60;99.90;;;;;;5034658;28;20392;-83
2022/09/13 08:37:22;;;;;;;1999.90;999.90;;;25.60;99.90;;;;;;5033781;28;20505;-77
2022/09/13 08:39:47;;;;;;;1999.90;999.90;;;25.70;99.90;;;;;;5033667;28;20065;-77
2022/09/13 08:42:48;;;;;;;1999.90;999.90;;;25.80;99.90;;;;;;5035814;28;20028;-83
2022/09/13 08:45:14;;;;;;;1999.90;999.90;;;25.90;99.90;;;;;;5051103;28;20519;-83
2022/09/13 08:47:48;;;;;;;1999.90;999.90;;;26.40;99.90;;;;;;5051242;28;20028;-83
2022/09/13 08:50:25;;;;;;;1999.90;999.90;;;27.80;99.90;;;;;;5047843;28;20029;-78
2022/09/13 08:53:11;;;;;;;1999.90;999.90;;;29.30;99.90;;;;;;5052944;28;20036;-78
2022/09/13 08:55:48;;;;;;;1999.90;999.90;;;28.60;99.90;;;;;;5053021;28;20039;-83
2022/09/13 08:58:33;;;;;;;1999.90;999.90;;;30.20;99.90;;;;;;5053159;28;20021;-78
2022/09/13 09:01:07;;;;;;;1999.90;999.90;;;31.50;99.90;;;;;;5034531;28;20029;-83
2022/09/13 09:03:45;;;;;;;1999.90;999.90;;;31.10;99.90;;;;;;5047029;28;20373;-79
2022/09/13 09:06:14;;;;;;;1999.90;999.90;;;31.30;99.90;;;;;;5053008;28;20451;-77
2022/09/13 09:08:58;;;;;;;1999.90;999.90;;;30.40;99.90;;;;;;5052967;28;20025;-76
2022/09/13 09:11:30;;;;;;;1999.90;999.90;;;30.40;99.90;;;;;;5052465;28;20039;-81
2022/09/13 09:14:01;;;;;;;1999.90;999.90;;;31.70;99.90;;;;;;5051365;28;20109;-81
2022/09/13 09:16:30;;;;;;;1999.90;999.90;;;32.10;99.40;;;;;;5051929;28;20100;-78
2022/09/13 09:19:02;;;;;;;1999.90;999.90;;;32.30;99.50;;;;;;5051860;28;20111;-80
2022/09/13 09:21:29;;;;;;;1999.90;999.90;;;31.80;99.90;;;;;;5052959;28;20118;-83
2022/09/13 09:23:56;;;;;;;1999.90;999.90;;;32.30;99.40;;;;;;5052414;28;20031;-81
2022/09/13 09:26:28;;;;;;;1999.90;999.90;;;32.20;98.90;;;;;;5051468;28;20032;-77
2022/09/13 09:28:53;;;;;;;;;;;31.20;99.60;;;;;;5052802;28;20045;-76
2022/09/13 09:31:24;;;;;;;1999.90;999.90;;;30.30;99.90;;;;;;5047298;28;20379;-80
2022/09/13 09:34:21;;;;;;;1999.90;999.90;;;30.10;99.90;;;;;;5032251;28;20029;-81
2022/09/13 09:37:11;;;;;;;1999.90;999.90;;;30.60;99.90;;;;;;5032341;28;20099;-81
2022/09/13 09:39:38;;;;;;;1999.90;999.90;;;31.00;99.90;;;;;;5048575;28;20048;-80
2022/09/13 09:42:17;;;;;;;1999.90;999.90;;;30.80;99.70;;;;;;5053299;28;20117;-80
2022/09/13 09:44:59;;;;;;;1999.90;999.90;;;30.70;99.90;;;;;;5050182;28;20023;-78
2022/09/13 09:47:26;;;;;;;;;;;30.50;99.90;;;;;;5052758;28;20361;-81
2022/09/13 09:50:08;;;;;;;1999.90;999.90;;;30.20;99.90;;;;;;5054547;28;20344;-80
2022/09/13 09:53:00;;;;;;;1999.90;999.90;;;30.20;99.90;;;;;;5051458;28;20056;-81
2022/09/13 09:55:30;;;;;;;1999.90;999.90;;;29.70;99.90;;;;;;5052121;28;20032;-78
2022/09/13 09:58:07;;;;;;;1999.90;999.90;;;29.40;99.90;;;;;;5052898;28;20023;-79
2022/09/13 10:00:50;;;;;;;1999.90;999.90;;;29.40;99.90;;;;;;5051852;28;20032;-76
2022/09/13 10:03:18;;;;;;;1999.90;999.90;;;29.30;99.90;;;;;;5053567;28;20033;-77
2022/09/13 10:05:45;;;;;;;1999.90;999.90;;;29.50;99.90;;;;;;5051994;28;20033;-76
2022/09/13 10:08:32;;;;;;;1999.90;999.90;;;29.50;99.90;;;;;;5050518;28;20442;-76
2022/09/13 10:10:59;;;;;;;1999.90;999.90;;;29.70;99.90;;;;;;5048629;28;20106;-74
2022/09/13 10:13:26;;;;;;;1999.90;999.90;;;29.50;99.90;;;;;;5049160;28;20017;-75
2022/09/13 10:15:59;;;;;;;1999.90;999.90;;;29.40;99.90;;;;;;5052522;28;20025;-80
2022/09/13 10:18:30;;;;;;;1999.90;999.90;;;29.30;99.90;;;;;;5052759;28;20013;-80
2022/09/13 10:21:20;;;;;;;1999.90;999.90;;;29.40;99.90;;;;;;5038758;28;20488;-76
2022/09/13 10:23:49;;;;;;;1999.90;999.90;;;29.30;99.90;;;;;;5037510;28;20021;-79
2022/09/13 10:26:24;;;;;;;1999.90;999.90;;;29.00;99.90;;;;;;5043989;28;20023;-80
2022/09/13 10:29:05;;;;;;;1999.90;999.90;;;29.00;99.90;;;;;;5049807;28;20471;-75
2022/09/13 10:31:37;;;;;;;1999.90;999.90;;;29.10;99.90;;;;;;5043332;28;20037;-80
2022/09/13 10:34:19;;;;;;;1999.90;999.90;;;29.50;99.90;;;;;;5049685;28;20036;-76
2022/09/13 10:36:58;;;;;;;1999.90;999.90;;;29.50;99.90;;;;;;5046358;28;20026;-80
2022/09/13 10:39:25;;;;;;;1999.90;999.90;;;29.50;99.90;;;;;;5045562;28;20053;-75
2022/09/13 10:42:07;;;;;;;1999.90;999.90;;;29.30;99.90;;;;;;5051488;28;20056;-80
2022/09/13 10:44:58;;;;;;;1999.90;999.90;;;28.80;99.90;;;;;;5045322;28;20060;-75
2022/09/13 10:47:26;;;;;;;1999.90;999.90;;;28.70;99.90;;;;;;5051503;28;20029;-79
2022/09/13 10:49:54;;;;;;;1999.90;999.90;;;28.70;99.90;;;;;;5051069;28;20025;-79
2022/09/13 10:52:30;;;;;;;1999.90;999.90;;;28.60;99.90;;;;;;5051427;28;20033;-81
2022/09/13 10:55:21;;;;;;;1999.90;999.90;;;28.60;99.90;;;;;;5036586;28;20388;-82
2022/09/13 10:57:53;;;;;;;1999.90;999.90;;;28.90;99.90;;;;;;5038009;28;20044;-82
2022/09/13 11:00:29;;;;;;;1999.90;999.90;;;29.10;99.90;;;;;;5051480;28;20021;-77
2022/09/13 11:03:36;;;;;;;1999.90;999.90;;;29.30;99.90;;;;;;5051331;28;20078;-81
2022/09/13 11:06:33;;;;;;;1999.90;999.90;;;29.00;99.90;;;;;;5035760;28;20041;-81
2022/09/13 11:09:22;;;;;;;1999.90;999.90;;;29.10;99.90;;;;;;5051470;28;20488;-78
2022/09/13 11:12:08;;;;;;;1999.90;999.90;;;29.20;99.90;;;;;;5054880;28;20546;-79
2022/09/13 11:15:17;;;;;;;1999.90;999.90;;;29.20;99.90;;;;;;5046654;28;20099;-76
2022/09/13 11:18:17;;;;;;;1999.90;999.90;;;29.00;99.90;;;;;;5051550;28;20025;-77
2022/09/13 11:21:20;;;;;;;1999.90;999.90;;;29.00;99.90;;;;;;5044913;28;20364;-81
2022/09/13 11:23:48;;;;;;;1999.90;999.90;;;28.80;99.90;;;;;;5054801;28;20025;-77
2022/09/13 11:26:46;;;;;;;1999.90;999.90;;;28.70;99.90;;;;;;5054676;28;20063;-77
2022/09/13 11:29:33;;;;;;;1999.90;999.90;;;28.60;99.90;;;;;;5046931;28;20048;-78
2022/09/13 11:32:19;;;;;;;1999.90;999.90;;;28.50;99.90;;;;;;5054347;28;20033;-82
2022/09/13 11:34:58;;;;;;;1999.90;999.90;;;28.70;99.90;;;;;;5054634;28;20025;-77
2022/09/13 11:37:46;;;;;;;1999.90;999.90;;;28.80;99.90;;;;;;5054495;28;20028;-77
2022/09/13 11:40:42;;;;;;;1999.90;999.90;;;28.90;99.90;;;;;;5054499;28;20377;-77
2022/09/13 11:43:36;;;;;;;1999.90;999.90;;;28.90;99.90;;;;;;5053957;28;20091;-81
2022/09/13 11:46:13;;;;;;;1999.90;999.90;;;28.90;99.90;;;;;;5054386;28;20032;-81
2022/09/13 11:49:06;;;;;;;1999.90;999.90;;;28.60;99.90;;;;;;5054723;28;20392;-78
2022/09/13 11:51:40;;;;;;;;;;;28.60;99.90;;;;;;5034858;28;20036;-77
2022/09/13 11:54:48;;;;;;;1999.90;999.90;;;28.50;99.90;;;;;;5042429;28;19915;-78
2022/09/13 11:57:20;;;;;;;1999.90;999.90;;;28.60;99.90;;;;;;5034516;28;20024;-78
2022/09/13 11:59:57;;;;;;;1999.90;999.90;;;28.80;99.90;;;;;;5045473;28;20026;-82
2022/09/13 12:02:51;;;;;;;1999.90;999.90;;;28.90;99.90;;;;;;5052681;28;20059;-76
2022/09/13 12:05:23;;;;;;;1999.90;999.90;;;29.00;99.90;;;;;;5043073;28;20176;-80
2022/09/13 12:07:49;;;;;;;;;;;29.20;99.90;;;;;;5053461;28;20017;-77
2022/09/13 12:10:41;;;;;;;1999.90;999.90;;;29.30;99.60;;;;;;5053602;28;19909;-82
2022/09/13 12:13:14;;;;;;;1999.90;999.90;;;29.30;99.90;;;;;;5055739;28;20024;-82
2022/09/13 12:15:43;;;;;;;1999.90;999.90;;;29.40;99.80;;;;;;5051053;28;20033;-83
2022/09/13 12:18:48;;;;;;;1999.90;999.90;;;29.50;99.90;;;;;;5053725;28;20025;-77
2022/09/13 12:21:18;;;;;;;1999.90;999.90;;;29.50;99.60;;;;;;5038959;28;20021;-79
2022/09/13 12:24:13;;;;;;;1999.90;999.90;;;29.50;99.90;;;;;;5033908;28;20116;-80
2022/09/13 12:27:03;;;;;;;1999.90;999.90;;;30.00;99.80;;;;;;5034433;28;20392;-78
2022/09/13 12:29:42;;;;;;;1999.90;999.90;;;30.60;99.10;;;;;;5050808;28;20049;-77
2022/09/13 12:32:09;;;;;;;1999.90;999.90;;;30.60;98.20;;;;;;5052806;28;20492;-78